sensor_id;sensor_type;location;lat;lon;timestamp;P1;durP1;ratioP1;P2;durP2;ratioP2
4468;SDS011;2247;42.666;23.292;2023-02-28T00:01:29;22.80;;;11.83;;
4468;SDS011;2247;42.666;23.292;2023-02-28T00:03:57;18.20;;;10.80;;
4468;SDS011;2247;42.666;23.292;2023-02-28T00:06:24;18.63;;;11.47;;
4468;SDS011;2247;42.666;23.292;2023-02-28T00:08:52;21.07;;;11.73;;
4468;SDS011;2247;42.666;23.292;2023-02-28T00:11:19;12.90;;;8.47;;
4468;SDS011;2247;42.666;23.292;2023-02-28T00:13:46;12.03;;;7.90;;
4468;SDS011;2247;42.666;23.292;2023-02-28T00:16:15;15.30;;;9.67;;
4468;SDS011;2247;42.666;23.292;2023-02-28T00:18:42;13.73;;;8.23;;
4468;SDS011;2247;42.666;23.292;2023-02-28T00:21:09;12.13;;;7.40;;
4468;SDS011;2247;42.666;23.292;2023-02-28T00:23:36;8.90;;;6.50;;
4468;SDS011;2247;42.666;23.292;2023-02-28T00:26:05;16.03;;;6.70;;
4468;SDS011;2247;42.666;23.292;2023-02-28T00:28:32;28.00;;;7.33;;
4468;SDS011;2247;42.666;23.292;2023-02-28T00:30:59;9.17;;;6.27;;
4468;SDS011;2247;42.666;23.292;2023-02-28T00:33:26;8.30;;;6.17;;
4468;SDS011;2247;42.666;23.292;2023-02-28T00:36:00;9.53;;;6.90;;
4468;SDS011;2247;42.666;23.292;2023-02-28T00:38:29;9.80;;;6.83;;
4468;SDS011;2247;42.666;23.292;2023-02-28T00:40:56;9.77;;;6.73;;
4468;SDS011;2247;42.666;23.292;2023-02-28T00:43:25;12.97;;;7.50;;
4468;SDS011;2247;42.666;23.292;2023-02-28T00:45:52;11.00;;;7.20;;
4468;SDS011;2247;42.666;23.292;2023-02-28T00:48:21;11.60;;;7.77;;
4468;SDS011;2247;42.666;23.292;2023-02-28T00:50:49;12.80;;;7.80;;
4468;SDS011;2247;42.666;23.292;2023-02-28T00:53:16;111.50;;;68.17;;
4468;SDS011;2247;42.666;23.292;2023-02-28T00:55:43;60.57;;;35.43;;
4468;SDS011;2247;42.666;23.292;2023-02-28T00:58:10;71.27;;;44.80;;
4468;SDS011;2247;42.666;23.292;2023-02-28T01:00:39;61.40;;;39.63;;
4468;SDS011;2247;42.666;23.292;2023-02-28T01:03:06;47.20;;;32.10;;
4468;SDS011;2247;42.666;23.292;2023-02-28T01:05:32;24.60;;;14.70;;
4468;SDS011;2247;42.666;23.292;2023-02-28T01:08:00;29.60;;;15.60;;
4468;SDS011;2247;42.666;23.292;2023-02-28T01:10:27;17.07;;;11.30;;
4468;SDS011;2247;42.666;23.292;2023-02-28T01:12:56;19.90;;;10.87;;
4468;SDS011;2247;42.666;23.292;2023-02-28T01:15:23;16.40;;;10.60;;
4468;SDS011;2247;42.666;23.292;2023-02-28T01:17:52;22.73;;;10.50;;
4468;SDS011;2247;42.666;23.292;2023-02-28T01:20:19;17.53;;;10.30;;
4468;SDS011;2247;42.666;23.292;2023-02-28T01:22:46;17.17;;;10.00;;
4468;SDS011;2247;42.666;23.292;2023-02-28T01:25:13;19.60;;;10.40;;
4468;SDS011;2247;42.666;23.292;2023-02-28T01:27:40;18.97;;;11.17;;
4468;SDS011;2247;42.666;23.292;2023-02-28T01:30:08;23.90;;;13.20;;
4468;SDS011;2247;42.666;23.292;2023-02-28T01:32:36;24.20;;;14.50;;
4468;SDS011;2247;42.666;23.292;2023-02-28T01:35:05;147.67;;;79.23;;
4468;SDS011;2247;42.666;23.292;2023-02-28T01:37:32;155.47;;;82.27;;
4468;SDS011;2247;42.666;23.292;2023-02-28T01:39:58;44.10;;;26.50;;
4468;SDS011;2247;42.666;23.292;2023-02-28T01:42:25;44.20;;;26.67;;
4468;SDS011;2247;42.666;23.292;2023-02-28T01:44:57;64.87;;;33.80;;
4468;SDS011;2247;42.666;23.292;2023-02-28T01:47:31;50.90;;;30.70;;
4468;SDS011;2247;42.666;23.292;2023-02-28T01:50:02;39.33;;;22.27;;
4468;SDS011;2247;42.666;23.292;2023-02-28T01:52:33;36.20;;;21.00;;
4468;SDS011;2247;42.666;23.292;2023-02-28T01:55:01;30.50;;;17.37;;
4468;SDS011;2247;42.666;23.292;2023-02-28T01:57:32;33.30;;;17.97;;
4468;SDS011;2247;42.666;23.292;2023-02-28T02:00:04;26.77;;;16.07;;
4468;SDS011;2247;42.666;23.292;2023-02-28T02:02:34;33.03;;;17.67;;
4468;SDS011;2247;42.666;23.292;2023-02-28T02:05:04;35.40;;;17.23;;
4468;SDS011;2247;42.666;23.292;2023-02-28T02:07:34;33.60;;;18.80;;
4468;SDS011;2247;42.666;23.292;2023-02-28T02:10:05;31.67;;;17.90;;
4468;SDS011;2247;42.666;23.292;2023-02-28T02:12:53;36.43;;;16.80;;
4468;SDS011;2247;42.666;23.292;2023-02-28T02:15:30;33.20;;;19.00;;
4468;SDS011;2247;42.666;23.292;2023-02-28T02:18:02;35.50;;;18.80;;
4468;SDS011;2247;42.666;23.292;2023-02-28T02:26:52;40.17;;;19.87;;
4468;SDS011;2247;42.666;23.292;2023-02-28T02:29:36;39.20;;;20.50;;
4468;SDS011;2247;42.666;23.292;2023-02-28T02:32:41;40.63;;;20.57;;
4468;SDS011;2247;42.666;23.292;2023-02-28T02:35:17;40.00;;;20.60;;
4468;SDS011;2247;42.666;23.292;2023-02-28T02:37:52;40.27;;;20.10;;
4468;SDS011;2247;42.666;23.292;2023-02-28T02:40:27;36.30;;;18.87;;
4468;SDS011;2247;42.666;23.292;2023-02-28T02:43:00;35.87;;;18.70;;
4468;SDS011;2247;42.666;23.292;2023-02-28T02:45:33;33.73;;;18.00;;
4468;SDS011;2247;42.666;23.292;2023-02-28T02:48:04;32.90;;;18.53;;
4468;SDS011;2247;42.666;23.292;2023-02-28T02:50:37;37.53;;;18.97;;
4468;SDS011;2247;42.666;23.292;2023-02-28T02:53:07;36.47;;;18.57;;
4468;SDS011;2247;42.666;23.292;2023-02-28T02:55:40;36.73;;;18.23;;
4468;SDS011;2247;42.666;23.292;2023-02-28T02:58:10;33.97;;;18.30;;
4468;SDS011;2247;42.666;23.292;2023-02-28T03:00:42;33.50;;;19.03;;
4468;SDS011;2247;42.666;23.292;2023-02-28T03:03:13;32.97;;;17.80;;
4468;SDS011;2247;42.666;23.292;2023-02-28T03:05:47;33.73;;;18.27;;
4468;SDS011;2247;42.666;23.292;2023-02-28T03:08:16;39.20;;;17.90;;
4468;SDS011;2247;42.666;23.292;2023-02-28T03:10:44;47.30;;;19.90;;
4468;SDS011;2247;42.666;23.292;2023-02-28T03:13:15;43.00;;;21.03;;
4468;SDS011;2247;42.666;23.292;2023-02-28T03:15:55;68.20;;;36.77;;
4468;SDS011;2247;42.666;23.292;2023-02-28T03:18:36;90.10;;;45.03;;
4468;SDS011;2247;42.666;23.292;2023-02-28T03:21:16;62.97;;;29.93;;
4468;SDS011;2247;42.666;23.292;2023-02-28T03:23:53;45.97;;;24.73;;
4468;SDS011;2247;42.666;23.292;2023-02-28T03:26:26;47.00;;;24.90;;
4468;SDS011;2247;42.666;23.292;2023-02-28T03:28:56;103.57;;;55.63;;
4468;SDS011;2247;42.666;23.292;2023-02-28T03:31:30;80.33;;;33.87;;
4468;SDS011;2247;42.666;23.292;2023-02-28T03:34:03;40.37;;;21.00;;
4468;SDS011;2247;42.666;23.292;2023-02-28T03:36:37;46.13;;;21.70;;
4468;SDS011;2247;42.666;23.292;2023-02-28T03:39:09;50.20;;;24.90;;
4468;SDS011;2247;42.666;23.292;2023-02-28T03:41:42;42.97;;;22.47;;
4468;SDS011;2247;42.666;23.292;2023-02-28T03:44:16;47.63;;;20.80;;
4468;SDS011;2247;42.666;23.292;2023-02-28T03:46:48;38.10;;;20.07;;
4468;SDS011;2247;42.666;23.292;2023-02-28T03:49:25;41.00;;;19.70;;
4468;SDS011;2247;42.666;23.292;2023-02-28T03:51:56;34.07;;;18.90;;
4468;SDS011;2247;42.666;23.292;2023-02-28T03:54:29;31.10;;;15.97;;
4468;SDS011;2247;42.666;23.292;2023-02-28T03:57:00;34.53;;;19.17;;
4468;SDS011;2247;42.666;23.292;2023-02-28T03:59:32;33.33;;;16.97;;
4468;SDS011;2247;42.666;23.292;2023-02-28T04:02:04;28.47;;;15.80;;
4468;SDS011;2247;42.666;23.292;2023-02-28T04:04:31;33.20;;;17.00;;
4468;SDS011;2247;42.666;23.292;2023-02-28T04:07:03;36.97;;;19.00;;
4468;SDS011;2247;42.666;23.292;2023-02-28T04:09:31;35.57;;;18.90;;
4468;SDS011;2247;42.666;23.292;2023-02-28T04:11:58;36.67;;;19.40;;
4468;SDS011;2247;42.666;23.292;2023-02-28T04:14:25;33.07;;;17.60;;
4468;SDS011;2247;42.666;23.292;2023-02-28T04:16:52;32.80;;;16.73;;
4468;SDS011;2247;42.666;23.292;2023-02-28T04:19:19;32.20;;;17.03;;
4468;SDS011;2247;42.666;23.292;2023-02-28T04:21:46;33.53;;;16.53;;
4468;SDS011;2247;42.666;23.292;2023-02-28T04:24:16;37.83;;;16.60;;
4468;SDS011;2247;42.666;23.292;2023-02-28T04:26:46;32.43;;;16.53;;
4468;SDS011;2247;42.666;23.292;2023-02-28T04:29:18;28.23;;;14.47;;
4468;SDS011;2247;42.666;23.292;2023-02-28T04:31:46;28.17;;;14.63;;
4468;SDS011;2247;42.666;23.292;2023-02-28T04:34:13;31.23;;;15.50;;
4468;SDS011;2247;42.666;23.292;2023-02-28T04:36:41;28.77;;;15.03;;
4468;SDS011;2247;42.666;23.292;2023-02-28T04:39:08;38.20;;;17.43;;
4468;SDS011;2247;42.666;23.292;2023-02-28T04:41:37;31.63;;;16.10;;
4468;SDS011;2247;42.666;23.292;2023-02-28T04:44:05;29.50;;;16.60;;
4468;SDS011;2247;42.666;23.292;2023-02-28T04:46:31;36.80;;;17.97;;
4468;SDS011;2247;42.666;23.292;2023-02-28T04:48:59;26.00;;;14.43;;
4468;SDS011;2247;42.666;23.292;2023-02-28T04:51:25;32.53;;;14.70;;
4468;SDS011;2247;42.666;23.292;2023-02-28T04:53:52;29.40;;;15.37;;
4468;SDS011;2247;42.666;23.292;2023-02-28T04:56:19;27.03;;;14.10;;
4468;SDS011;2247;42.666;23.292;2023-02-28T04:58:48;37.47;;;15.13;;
4468;SDS011;2247;42.666;23.292;2023-02-28T05:01:20;31.53;;;16.40;;
4468;SDS011;2247;42.666;23.292;2023-02-28T05:03:50;30.73;;;15.80;;
4468;SDS011;2247;42.666;23.292;2023-02-28T05:06:17;33.40;;;15.10;;
4468;SDS011;2247;42.666;23.292;2023-02-28T05:08:46;33.57;;;16.10;;
4468;SDS011;2247;42.666;23.292;2023-02-28T05:11:29;25.00;;;13.80;;
4468;SDS011;2247;42.666;23.292;2023-02-28T05:16:44;25.73;;;12.97;;
4468;SDS011;2247;42.666;23.292;2023-02-28T05:19:11;24.40;;;12.73;;
4468;SDS011;2247;42.666;23.292;2023-02-28T05:21:40;26.80;;;12.97;;
4468;SDS011;2247;42.666;23.292;2023-02-28T05:24:09;28.80;;;14.37;;
4468;SDS011;2247;42.666;23.292;2023-02-28T05:26:48;24.27;;;13.40;;
4468;SDS011;2247;42.666;23.292;2023-02-28T05:29:19;26.00;;;13.23;;
4468;SDS011;2247;42.666;23.292;2023-02-28T05:31:49;30.77;;;13.73;;
4468;SDS011;2247;42.666;23.292;2023-02-28T05:34:19;23.00;;;13.23;;
4468;SDS011;2247;42.666;23.292;2023-02-28T05:36:48;32.40;;;13.37;;
4468;SDS011;2247;42.666;23.292;2023-02-28T05:39:18;23.20;;;12.50;;
4468;SDS011;2247;42.666;23.292;2023-02-28T05:41:52;30.37;;;12.83;;
4468;SDS011;2247;42.666;23.292;2023-02-28T05:44:20;25.73;;;13.20;;
4468;SDS011;2247;42.666;23.292;2023-02-28T05:46:50;27.57;;;12.67;;
4468;SDS011;2247;42.666;23.292;2023-02-28T05:49:18;28.50;;;14.13;;
4468;SDS011;2247;42.666;23.292;2023-02-28T05:51:45;28.30;;;14.00;;
4468;SDS011;2247;42.666;23.292;2023-02-28T05:54:13;25.00;;;13.60;;
4468;SDS011;2247;42.666;23.292;2023-02-28T05:56:41;31.63;;;15.07;;
4468;SDS011;2247;42.666;23.292;2023-02-28T05:59:09;30.10;;;14.40;;
4468;SDS011;2247;42.666;23.292;2023-02-28T06:01:37;28.43;;;15.30;;
4468;SDS011;2247;42.666;23.292;2023-02-28T06:04:08;29.97;;;13.63;;
4468;SDS011;2247;42.666;23.292;2023-02-28T06:06:36;29.27;;;14.60;;
4468;SDS011;2247;42.666;23.292;2023-02-28T06:09:04;25.90;;;14.93;;
4468;SDS011;2247;42.666;23.292;2023-02-28T06:11:31;33.23;;;15.40;;
4468;SDS011;2247;42.666;23.292;2023-02-28T06:13:59;26.30;;;14.67;;
4468;SDS011;2247;42.666;23.292;2023-02-28T06:16:27;29.87;;;15.93;;
4468;SDS011;2247;42.666;23.292;2023-02-28T06:18:54;28.40;;;15.27;;
4468;SDS011;2247;42.666;23.292;2023-02-28T06:21:25;29.17;;;15.37;;
4468;SDS011;2247;42.666;23.292;2023-02-28T06:23:52;31.60;;;16.97;;
4468;SDS011;2247;42.666;23.292;2023-02-28T06:26:19;30.20;;;15.13;;
4468;SDS011;2247;42.666;23.292;2023-02-28T06:28:46;30.60;;;15.83;;
4468;SDS011;2247;42.666;23.292;2023-02-28T06:31:14;30.87;;;15.17;;
4468;SDS011;2247;42.666;23.292;2023-02-28T06:33:42;31.07;;;16.43;;
4468;SDS011;2247;42.666;23.292;2023-02-28T06:36:10;33.03;;;17.33;;
4468;SDS011;2247;42.666;23.292;2023-02-28T06:38:40;35.67;;;16.90;;
4468;SDS011;2247;42.666;23.292;2023-02-28T06:41:07;35.07;;;17.83;;
4468;SDS011;2247;42.666;23.292;2023-02-28T06:43:37;35.03;;;18.20;;
4468;SDS011;2247;42.666;23.292;2023-02-28T06:46:07;31.93;;;17.50;;
4468;SDS011;2247;42.666;23.292;2023-02-28T06:48:38;34.13;;;17.90;;
4468;SDS011;2247;42.666;23.292;2023-02-28T06:51:06;36.70;;;18.27;;
4468;SDS011;2247;42.666;23.292;2023-02-28T06:53:35;38.73;;;17.90;;
4468;SDS011;2247;42.666;23.292;2023-02-28T06:56:05;33.40;;;17.83;;
4468;SDS011;2247;42.666;23.292;2023-02-28T06:58:33;36.20;;;18.10;;
4468;SDS011;2247;42.666;23.292;2023-02-28T07:01:01;33.87;;;18.40;;
4468;SDS011;2247;42.666;23.292;2023-02-28T07:03:29;41.73;;;18.80;;
4468;SDS011;2247;42.666;23.292;2023-02-28T07:05:56;32.83;;;18.40;;
4468;SDS011;2247;42.666;23.292;2023-02-28T07:08:23;38.23;;;19.43;;
4468;SDS011;2247;42.666;23.292;2023-02-28T07:10:51;34.70;;;18.87;;
4468;SDS011;2247;42.666;23.292;2023-02-28T07:13:20;38.97;;;19.00;;
4468;SDS011;2247;42.666;23.292;2023-02-28T07:15:53;47.60;;;20.00;;
4468;SDS011;2247;42.666;23.292;2023-02-28T07:18:21;40.47;;;18.20;;
4468;SDS011;2247;42.666;23.292;2023-02-28T07:20:48;34.10;;;18.17;;
4468;SDS011;2247;42.666;23.292;2023-02-28T07:23:15;37.17;;;18.33;;
4468;SDS011;2247;42.666;23.292;2023-02-28T07:25:42;33.73;;;19.23;;
4468;SDS011;2247;42.666;23.292;2023-02-28T07:28:10;38.00;;;18.73;;
4468;SDS011;2247;42.666;23.292;2023-02-28T07:30:40;33.70;;;18.33;;
4468;SDS011;2247;42.666;23.292;2023-02-28T07:33:07;54.23;;;27.43;;
4468;SDS011;2247;42.666;23.292;2023-02-28T07:35:34;40.77;;;20.97;;
4468;SDS011;2247;42.666;23.292;2023-02-28T07:38:01;41.73;;;19.33;;
4468;SDS011;2247;42.666;23.292;2023-02-28T07:40:29;43.77;;;20.03;;
4468;SDS011;2247;42.666;23.292;2023-02-28T07:42:58;41.43;;;21.13;;
4468;SDS011;2247;42.666;23.292;2023-02-28T07:45:25;43.13;;;22.20;;
4468;SDS011;2247;42.666;23.292;2023-02-28T07:47:55;35.53;;;19.40;;
4468;SDS011;2247;42.666;23.292;2023-02-28T07:50:23;38.30;;;20.83;;
4468;SDS011;2247;42.666;23.292;2023-02-28T07:52:49;42.63;;;22.20;;
4468;SDS011;2247;42.666;23.292;2023-02-28T07:55:16;46.93;;;23.20;;
4468;SDS011;2247;42.666;23.292;2023-02-28T07:57:43;46.33;;;23.30;;
4468;SDS011;2247;42.666;23.292;2023-02-28T08:00:12;56.80;;;24.43;;
4468;SDS011;2247;42.666;23.292;2023-02-28T08:02:39;44.17;;;23.50;;
4468;SDS011;2247;42.666;23.292;2023-02-28T08:05:08;48.07;;;22.77;;
4468;SDS011;2247;42.666;23.292;2023-02-28T08:07:37;52.13;;;24.17;;
4468;SDS011;2247;42.666;23.292;2023-02-28T08:10:05;46.20;;;22.57;;
4468;SDS011;2247;42.666;23.292;2023-02-28T08:12:35;43.80;;;22.70;;
4468;SDS011;2247;42.666;23.292;2023-02-28T08:15:02;42.33;;;22.17;;
4468;SDS011;2247;42.666;23.292;2023-02-28T08:17:29;41.83;;;21.97;;
4468;SDS011;2247;42.666;23.292;2023-02-28T08:19:55;46.93;;;23.23;;
4468;SDS011;2247;42.666;23.292;2023-02-28T08:22:24;42.20;;;20.20;;
4468;SDS011;2247;42.666;23.292;2023-02-28T08:24:51;38.47;;;20.40;;
4468;SDS011;2247;42.666;23.292;2023-02-28T08:27:18;52.00;;;22.60;;
4468;SDS011;2247;42.666;23.292;2023-02-28T08:29:46;43.17;;;23.00;;
4468;SDS011;2247;42.666;23.292;2023-02-28T08:32:13;45.37;;;23.80;;
4468;SDS011;2247;42.666;23.292;2023-02-28T08:34:41;52.10;;;24.90;;
4468;SDS011;2247;42.666;23.292;2023-02-28T08:37:09;54.37;;;24.93;;
4468;SDS011;2247;42.666;23.292;2023-02-28T08:39:38;51.80;;;26.90;;
4468;SDS011;2247;42.666;23.292;2023-02-28T08:42:05;54.90;;;27.93;;
4468;SDS011;2247;42.666;23.292;2023-02-28T08:44:32;56.07;;;28.47;;
4468;SDS011;2247;42.666;23.292;2023-02-28T08:46:59;65.40;;;30.13;;
4468;SDS011;2247;42.666;23.292;2023-02-28T08:49:26;49.77;;;26.20;;
4468;SDS011;2247;42.666;23.292;2023-02-28T08:51:53;58.00;;;25.40;;
4468;SDS011;2247;42.666;23.292;2023-02-28T08:54:20;51.00;;;24.40;;
4468;SDS011;2247;42.666;23.292;2023-02-28T08:56:49;56.20;;;27.00;;
4468;SDS011;2247;42.666;23.292;2023-02-28T08:59:16;66.50;;;26.53;;
4468;SDS011;2247;42.666;23.292;2023-02-28T09:01:43;59.50;;;26.40;;
4468;SDS011;2247;42.666;23.292;2023-02-28T09:04:10;73.20;;;26.03;;
4468;SDS011;2247;42.666;23.292;2023-02-28T09:06:37;53.07;;;26.43;;
4468;SDS011;2247;42.666;23.292;2023-02-28T09:09:04;47.13;;;23.93;;
4468;SDS011;2247;42.666;23.292;2023-02-28T09:11:32;57.67;;;26.40;;
4468;SDS011;2247;42.666;23.292;2023-02-28T09:14:02;53.40;;;25.00;;
4468;SDS011;2247;42.666;23.292;2023-02-28T09:16:30;56.03;;;25.90;;
4468;SDS011;2247;42.666;23.292;2023-02-28T09:18:58;55.40;;;26.37;;
4468;SDS011;2247;42.666;23.292;2023-02-28T09:21:25;58.33;;;25.70;;
4468;SDS011;2247;42.666;23.292;2023-02-28T09:23:52;50.13;;;25.97;;
4468;SDS011;2247;42.666;23.292;2023-02-28T09:26:21;65.30;;;26.33;;
4468;SDS011;2247;42.666;23.292;2023-02-28T09:28:49;57.90;;;26.90;;
4468;SDS011;2247;42.666;23.292;2023-02-28T09:31:20;54.23;;;25.67;;
4468;SDS011;2247;42.666;23.292;2023-02-28T09:33:48;69.83;;;28.23;;
4468;SDS011;2247;42.666;23.292;2023-02-28T09:36:17;68.80;;;28.87;;
4468;SDS011;2247;42.666;23.292;2023-02-28T09:38:44;56.50;;;25.93;;
4468;SDS011;2247;42.666;23.292;2023-02-28T09:41:13;52.73;;;25.70;;
4468;SDS011;2247;42.666;23.292;2023-02-28T09:43:43;52.47;;;26.87;;
4468;SDS011;2247;42.666;23.292;2023-02-28T09:46:21;65.23;;;27.90;;
4468;SDS011;2247;42.666;23.292;2023-02-28T09:48:54;59.80;;;26.33;;
4468;SDS011;2247;42.666;23.292;2023-02-28T09:51:40;52.90;;;25.93;;
4468;SDS011;2247;42.666;23.292;2023-02-28T09:54:15;62.83;;;26.43;;
4468;SDS011;2247;42.666;23.292;2023-02-28T09:56:45;64.97;;;27.70;;
4468;SDS011;2247;42.666;23.292;2023-02-28T09:59:20;55.30;;;24.83;;
4468;SDS011;2247;42.666;23.292;2023-02-28T10:02:03;60.43;;;25.80;;
4468;SDS011;2247;42.666;23.292;2023-02-28T10:04:41;61.70;;;26.67;;
4468;SDS011;2247;42.666;23.292;2023-02-28T10:07:21;46.77;;;25.43;;
4468;SDS011;2247;42.666;23.292;2023-02-28T10:10:02;64.20;;;28.03;;
4468;SDS011;2247;42.666;23.292;2023-02-28T10:12:40;53.20;;;27.27;;
4468;SDS011;2247;42.666;23.292;2023-02-28T10:15:13;54.70;;;26.67;;
4468;SDS011;2247;42.666;23.292;2023-02-28T10:17:42;59.10;;;28.70;;
4468;SDS011;2247;42.666;23.292;2023-02-28T10:20:15;56.77;;;29.33;;
4468;SDS011;2247;42.666;23.292;2023-02-28T10:22:51;59.53;;;29.30;;
4468;SDS011;2247;42.666;23.292;2023-02-28T10:25:22;64.17;;;28.10;;
4468;SDS011;2247;42.666;23.292;2023-02-28T10:27:50;75.43;;;30.57;;
4468;SDS011;2247;42.666;23.292;2023-02-28T10:30:21;58.93;;;28.17;;
4468;SDS011;2247;42.666;23.292;2023-02-28T10:32:52;60.37;;;23.80;;
4468;SDS011;2247;42.666;23.292;2023-02-28T10:35:20;54.00;;;24.33;;
4468;SDS011;2247;42.666;23.292;2023-02-28T10:37:48;38.33;;;17.70;;
4468;SDS011;2247;42.666;23.292;2023-02-28T10:40:29;23.50;;;10.37;;
4468;SDS011;2247;42.666;23.292;2023-02-28T10:43:01;29.23;;;14.63;;
4468;SDS011;2247;42.666;23.292;2023-02-28T10:45:29;27.73;;;13.30;;
4468;SDS011;2247;42.666;23.292;2023-02-28T10:48:01;36.40;;;11.20;;
4468;SDS011;2247;42.666;23.292;2023-02-28T10:50:34;25.70;;;11.87;;
4468;SDS011;2247;42.666;23.292;2023-02-28T10:53:14;26.63;;;10.37;;
4468;SDS011;2247;42.666;23.292;2023-02-28T10:55:55;17.47;;;9.47;;
4468;SDS011;2247;42.666;23.292;2023-02-28T10:58:25;21.50;;;10.17;;
4468;SDS011;2247;42.666;23.292;2023-02-28T11:00:53;25.40;;;10.07;;
4468;SDS011;2247;42.666;23.292;2023-02-28T11:03:29;27.40;;;11.53;;
4468;SDS011;2247;42.666;23.292;2023-02-28T11:05:58;17.87;;;10.90;;
4468;SDS011;2247;42.666;23.292;2023-02-28T11:08:30;28.10;;;12.07;;
4468;SDS011;2247;42.666;23.292;2023-02-28T11:10:58;32.57;;;10.50;;
4468;SDS011;2247;42.666;23.292;2023-02-28T11:13:27;28.87;;;10.47;;
4468;SDS011;2247;42.666;23.292;2023-02-28T11:15:59;27.73;;;10.70;;
4468;SDS011;2247;42.666;23.292;2023-02-28T11:18:39;24.60;;;11.10;;
4468;SDS011;2247;42.666;23.292;2023-02-28T11:21:08;33.87;;;11.77;;
4468;SDS011;2247;42.666;23.292;2023-02-28T11:23:42;26.37;;;10.50;;
4468;SDS011;2247;42.666;23.292;2023-02-28T11:26:09;28.47;;;10.27;;
4468;SDS011;2247;42.666;23.292;2023-02-28T11:28:37;31.10;;;10.70;;
4468;SDS011;2247;42.666;23.292;2023-02-28T11:31:14;21.67;;;11.00;;
4468;SDS011;2247;42.666;23.292;2023-02-28T11:33:46;28.10;;;12.03;;
4468;SDS011;2247;42.666;23.292;2023-02-28T11:36:17;32.87;;;11.87;;
4468;SDS011;2247;42.666;23.292;2023-02-28T11:38:46;22.60;;;11.60;;
4468;SDS011;2247;42.666;23.292;2023-02-28T11:44:05;30.77;;;11.80;;
4468;SDS011;2247;42.666;23.292;2023-02-28T11:46:45;25.63;;;11.60;;
4468;SDS011;2247;42.666;23.292;2023-02-28T11:49:21;26.00;;;11.83;;
4468;SDS011;2247;42.666;23.292;2023-02-28T11:52:00;29.43;;;12.20;;
4468;SDS011;2247;42.666;23.292;2023-02-28T11:54:44;35.80;;;12.37;;
4468;SDS011;2247;42.666;23.292;2023-02-28T11:57:28;28.90;;;12.57;;
4468;SDS011;2247;42.666;23.292;2023-02-28T12:00:07;36.50;;;12.40;;
4468;SDS011;2247;42.666;23.292;2023-02-28T12:02:50;31.57;;;12.27;;
4468;SDS011;2247;42.666;23.292;2023-02-28T12:05:31;30.57;;;13.60;;
4468;SDS011;2247;42.666;23.292;2023-02-28T12:08:07;28.03;;;12.77;;
4468;SDS011;2247;42.666;23.292;2023-02-28T12:10:52;29.73;;;12.50;;
4468;SDS011;2247;42.666;23.292;2023-02-28T12:13:29;26.00;;;11.80;;
4468;SDS011;2247;42.666;23.292;2023-02-28T12:16:15;35.10;;;14.23;;
4468;SDS011;2247;42.666;23.292;2023-02-28T12:18:58;23.63;;;12.70;;
4468;SDS011;2247;42.666;23.292;2023-02-28T12:21:43;36.97;;;12.90;;
4468;SDS011;2247;42.666;23.292;2023-02-28T12:27:19;29.33;;;12.17;;
4468;SDS011;2247;42.666;23.292;2023-02-28T12:29:49;23.50;;;12.33;;
4468;SDS011;2247;42.666;23.292;2023-02-28T12:32:23;24.93;;;12.07;;
4468;SDS011;2247;42.666;23.292;2023-02-28T12:34:57;29.53;;;12.33;;
4468;SDS011;2247;42.666;23.292;2023-02-28T12:37:32;33.70;;;12.93;;
4468;SDS011;2247;42.666;23.292;2023-02-28T12:40:06;35.10;;;12.30;;
4468;SDS011;2247;42.666;23.292;2023-02-28T12:42:38;21.67;;;10.13;;
4468;SDS011;2247;42.666;23.292;2023-02-28T12:45:10;28.50;;;12.40;;
4468;SDS011;2247;42.666;23.292;2023-02-28T12:47:45;26.27;;;11.50;;
4468;SDS011;2247;42.666;23.292;2023-02-28T12:50:14;23.23;;;13.47;;
4468;SDS011;2247;42.666;23.292;2023-02-28T12:52:46;36.67;;;11.57;;
4468;SDS011;2247;42.666;23.292;2023-02-28T12:55:21;24.73;;;12.30;;
4468;SDS011;2247;42.666;23.292;2023-02-28T12:57:57;26.23;;;11.87;;
4468;SDS011;2247;42.666;23.292;2023-02-28T13:00:29;24.33;;;11.63;;
4468;SDS011;2247;42.666;23.292;2023-02-28T13:06:01;26.50;;;10.60;;
4468;SDS011;2247;42.666;23.292;2023-02-28T13:08:53;23.80;;;11.57;;
4468;SDS011;2247;42.666;23.292;2023-02-28T13:11:28;26.60;;;11.00;;
4468;SDS011;2247;42.666;23.292;2023-02-28T13:13:58;23.93;;;11.33;;
4468;SDS011;2247;42.666;23.292;2023-02-28T13:16:27;25.43;;;11.60;;
4468;SDS011;2247;42.666;23.292;2023-02-28T13:19:07;25.43;;;11.03;;
4468;SDS011;2247;42.666;23.292;2023-02-28T13:21:43;27.23;;;11.20;;
4468;SDS011;2247;42.666;23.292;2023-02-28T13:24:12;23.93;;;11.23;;
4468;SDS011;2247;42.666;23.292;2023-02-28T13:29:59;20.50;;;10.00;;
4468;SDS011;2247;42.666;23.292;2023-02-28T13:38:24;18.07;;;9.23;;
4468;SDS011;2247;42.666;23.292;2023-02-28T13:44:07;17.30;;;9.60;;
4468;SDS011;2247;42.666;23.292;2023-02-28T13:46:35;27.53;;;8.90;;
4468;SDS011;2247;42.666;23.292;2023-02-28T13:49:26;21.27;;;9.00;;
4468;SDS011;2247;42.666;23.292;2023-02-28T13:52:02;22.67;;;8.87;;
4468;SDS011;2247;42.666;23.292;2023-02-28T13:54:42;17.80;;;8.20;;
4468;SDS011;2247;42.666;23.292;2023-02-28T13:57:23;21.40;;;10.37;;
4468;SDS011;2247;42.666;23.292;2023-02-28T14:00:05;16.60;;;8.30;;
4468;SDS011;2247;42.666;23.292;2023-02-28T14:05:41;24.03;;;7.93;;
4468;SDS011;2247;42.666;23.292;2023-02-28T14:08:11;18.30;;;8.10;;
4468;SDS011;2247;42.666;23.292;2023-02-28T14:10:44;26.33;;;9.40;;
4468;SDS011;2247;42.666;23.292;2023-02-28T14:13:17;19.70;;;8.67;;
4468;SDS011;2247;42.666;23.292;2023-02-28T14:16:11;26.63;;;9.90;;
4468;SDS011;2247;42.666;23.292;2023-02-28T14:18:40;20.87;;;9.50;;
4468;SDS011;2247;42.666;23.292;2023-02-28T14:21:14;21.23;;;9.60;;
4468;SDS011;2247;42.666;23.292;2023-02-28T14:26:58;26.23;;;9.47;;
4468;SDS011;2247;42.666;23.292;2023-02-28T14:29:38;31.23;;;9.37;;
4468;SDS011;2247;42.666;23.292;2023-02-28T14:32:23;23.20;;;9.30;;
4468;SDS011;2247;42.666;23.292;2023-02-28T14:34:55;23.87;;;9.93;;
4468;SDS011;2247;42.666;23.292;2023-02-28T14:37:29;22.07;;;8.20;;
4468;SDS011;2247;42.666;23.292;2023-02-28T14:39:59;19.40;;;8.40;;
4468;SDS011;2247;42.666;23.292;2023-02-28T14:42:31;18.30;;;8.97;;
4468;SDS011;2247;42.666;23.292;2023-02-28T14:45:00;30.20;;;9.50;;
4468;SDS011;2247;42.666;23.292;2023-02-28T14:47:30;31.13;;;10.67;;
4468;SDS011;2247;42.666;23.292;2023-02-28T14:49:59;18.67;;;9.17;;
4468;SDS011;2247;42.666;23.292;2023-02-28T14:52:29;25.30;;;9.50;;
4468;SDS011;2247;42.666;23.292;2023-02-28T14:54:59;18.50;;;9.20;;
4468;SDS011;2247;42.666;23.292;2023-02-28T14:57:30;16.03;;;9.40;;
4468;SDS011;2247;42.666;23.292;2023-02-28T15:00:03;18.73;;;9.23;;
4468;SDS011;2247;42.666;23.292;2023-02-28T15:02:37;30.23;;;9.57;;
4468;SDS011;2247;42.666;23.292;2023-02-28T15:05:21;20.77;;;8.97;;
4468;SDS011;2247;42.666;23.292;2023-02-28T15:08:00;27.33;;;9.13;;
4468;SDS011;2247;42.666;23.292;2023-02-28T15:10:28;19.10;;;9.00;;
4468;SDS011;2247;42.666;23.292;2023-02-28T15:12:56;18.97;;;9.97;;
4468;SDS011;2247;42.666;23.292;2023-02-28T15:15:29;25.90;;;9.47;;
4468;SDS011;2247;42.666;23.292;2023-02-28T15:18:07;27.13;;;9.63;;
4468;SDS011;2247;42.666;23.292;2023-02-28T15:20:42;19.97;;;8.73;;
4468;SDS011;2247;42.666;23.292;2023-02-28T15:23:10;24.03;;;9.33;;
4468;SDS011;2247;42.666;23.292;2023-02-28T15:25:38;19.83;;;9.20;;
4468;SDS011;2247;42.666;23.292;2023-02-28T15:28:09;24.33;;;9.20;;
4468;SDS011;2247;42.666;23.292;2023-02-28T15:30:49;22.40;;;9.40;;
4468;SDS011;2247;42.666;23.292;2023-02-28T15:33:20;19.33;;;9.60;;
4468;SDS011;2247;42.666;23.292;2023-02-28T15:35:48;24.60;;;9.17;;